createdAt,value
2023-02-13T00:00:35.695Z,88.50
2023-02-13T00:03:04.168Z,88.40
2023-02-13T00:05:31.406Z,88.50
2023-02-13T00:07:58.570Z,88.40
2023-02-13T00:10:25.823Z,87.90
2023-02-13T00:12:53.133Z,88.10
2023-02-13T00:15:20.364Z,88.40
2023-02-13T00:17:47.559Z,88.40
2023-02-13T00:20:14.809Z,88.20
2023-02-13T00:22:42.001Z,88.50
2023-02-13T00:25:09.539Z,88.30
2023-02-13T00:27:36.814Z,88.50
2023-02-13T00:30:04.976Z,88.40
2023-02-13T00:32:32.293Z,88.20
2023-02-13T00:34:59.565Z,88.30
2023-02-13T00:37:26.985Z,88.50
2023-02-13T00:39:54.289Z,88.70
2023-02-13T00:42:24.049Z,88.80
2023-02-13T00:44:51.412Z,89.10
2023-02-13T00:47:19.407Z,89.10
2023-02-13T00:49:46.795Z,88.80
2023-02-13T00:52:14.004Z,88.80
2023-02-13T00:54:47.270Z,88.90
2023-02-13T00:57:14.602Z,88.90
2023-02-13T00:59:43.014Z,89.00
2023-02-13T01:02:10.215Z,89.00
2023-02-13T01:04:37.532Z,89.00
2023-02-13T01:07:04.734Z,89.10
2023-02-13T01:09:32.049Z,88.90
2023-02-13T01:11:59.233Z,88.80
2023-02-13T01:14:26.633Z,88.90
2023-02-13T01:16:53.848Z,89.00
2023-02-13T01:19:21.102Z,89.00
2023-02-13T01:21:48.300Z,88.90
2023-02-13T01:24:15.555Z,88.70
2023-02-13T01:26:43.592Z,88.50
2023-02-13T01:29:14.319Z,88.50
2023-02-13T01:31:41.640Z,88.60
2023-02-13T01:34:08.879Z,88.60
2023-02-13T01:36:36.061Z,88.60
2023-02-13T01:39:03.435Z,88.70
2023-02-13T01:41:31.751Z,88.90
2023-02-13T01:44:01.536Z,88.50
2023-02-13T01:46:38.749Z,88.60
2023-02-13T01:49:18.578Z,88.90
2023-02-13T01:51:47.311Z,89.00
2023-02-13T01:54:18.141Z,89.00
2023-02-13T01:56:53.973Z,89.10
2023-02-13T01:59:33.229Z,88.90
2023-02-13T02:02:01.715Z,89.10
2023-02-13T02:04:33.534Z,89.30
2023-02-13T02:07:08.481Z,89.40
2023-02-13T02:09:40.559Z,89.30
2023-02-13T02:12:18.209Z,89.70
2023-02-13T02:14:45.766Z,89.70
2023-02-13T02:17:13.957Z,89.70
2023-02-13T02:19:52.971Z,89.70
2023-02-13T02:22:51.671Z,89.80
2023-02-13T02:25:43.603Z,89.50
2023-02-13T02:28:38.502Z,89.50
2023-02-13T02:31:39.646Z,89.60
2023-02-13T02:34:15.273Z,89.80
2023-02-13T02:37:17.655Z,89.80
2023-02-13T02:40:04.135Z,89.80
2023-02-13T02:42:42.883Z,90.10
2023-02-13T02:45:30.452Z,90.20
2023-02-13T02:48:31.434Z,90.30
2023-02-13T02:51:12.637Z,90.40
2023-02-13T02:53:48.767Z,90.60
2023-02-13T02:56:25.604Z,90.60
2023-02-13T02:59:17.465Z,90.70
2023-02-13T03:02:04.313Z,90.70
2023-02-13T03:04:59.221Z,90.80
2023-02-13T03:07:27.473Z,90.70
2023-02-13T03:10:20.304Z,90.70
2023-02-13T03:13:20.826Z,91.00
2023-02-13T03:16:12.868Z,90.70
2023-02-13T03:19:04.893Z,90.60
2023-02-13T03:22:20.167Z,90.70
2023-02-13T03:25:12.614Z,91.00
2023-02-13T03:28:04.377Z,90.90
2023-02-13T03:30:38.438Z,90.60
2023-02-13T03:33:36.609Z,90.50
2023-02-13T03:36:34.164Z,90.40
2023-02-13T03:39:28.086Z,90.10
2023-02-13T03:41:57.886Z,90.00
2023-02-13T03:44:33.160Z,90.20
2023-02-13T03:47:02.899Z,90.30
2023-02-13T03:49:59.688Z,90.30
2023-02-13T03:52:35.967Z,90.20
2023-02-13T03:55:32.521Z,90.00
2023-02-13T03:58:23.933Z,89.90
2023-02-13T04:00:55.843Z,90.00
2023-02-13T04:03:35.664Z,89.80
2023-02-13T04:06:08.944Z,89.70
2023-02-13T04:08:38.298Z,89.80
2023-02-13T04:11:17.842Z,89.70
2023-02-13T04:14:03.335Z,89.60
2023-02-13T04:16:48.990Z,89.50
2023-02-13T04:19:17.100Z,89.30
2023-02-13T04:21:44.333Z,89.30
2023-02-13T04:24:12.179Z,89.10
2023-02-13T04:26:46.573Z,89.20
2023-02-13T04:29:13.935Z,89.30
2023-02-13T04:31:42.258Z,89.40
2023-02-13T04:34:09.579Z,89.40
2023-02-13T04:36:36.791Z,89.40
2023-02-13T04:39:04.063Z,89.20
2023-02-13T04:41:31.334Z,89.30
2023-02-13T04:43:58.524Z,89.40
2023-02-13T04:46:25.989Z,89.20
2023-02-13T04:48:53.307Z,89.20
2023-02-13T04:51:20.510Z,89.20
2023-02-13T04:53:47.678Z,89.10
2023-02-13T04:56:14.921Z,88.90
2023-02-13T04:58:42.094Z,88.60
2023-02-13T05:01:16.771Z,88.60
2023-02-13T05:03:44.779Z,88.70
2023-02-13T05:06:12.641Z,88.80
2023-02-13T05:08:40.351Z,89.00
2023-02-13T05:11:07.547Z,89.00
2023-02-13T05:13:34.763Z,88.90
2023-02-13T05:16:02.004Z,89.30
2023-02-13T05:18:29.229Z,89.50
2023-02-13T05:21:15.128Z,89.60
2023-02-13T05:23:44.405Z,89.60
2023-02-13T05:26:22.775Z,89.60
2023-02-13T05:29:10.592Z,89.50
2023-02-13T05:31:37.819Z,89.50
2023-02-13T05:34:07.386Z,89.20
2023-02-13T05:36:34.548Z,89.10
2023-02-13T05:39:03.046Z,89.20
2023-02-13T05:41:30.289Z,89.00
2023-02-13T05:43:59.630Z,88.80
2023-02-13T05:46:27.052Z,88.60
2023-02-13T05:48:54.328Z,88.60
2023-02-13T05:51:21.572Z,88.60
2023-02-13T05:53:48.811Z,88.70
2023-02-13T05:56:16.233Z,89.00
2023-02-13T05:58:45.027Z,89.10
2023-02-13T06:01:12.329Z,89.10
2023-02-13T06:03:40.464Z,89.20
2023-02-13T06:06:07.976Z,89.20
2023-02-13T06:08:35.220Z,88.90
2023-02-13T06:11:02.874Z,89.00
2023-02-13T06:13:30.474Z,89.20
2023-02-13T06:15:58.905Z,89.10
2023-02-13T06:18:29.553Z,89.00
2023-02-13T06:20:57.082Z,88.90
2023-02-13T06:23:24.476Z,88.70
2023-02-13T06:25:51.635Z,88.60
2023-02-13T06:28:18.903Z,88.50
2023-02-13T06:30:49.258Z,88.90
2023-02-13T06:33:16.537Z,89.00
2023-02-13T06:35:43.754Z,89.20
2023-02-13T06:38:10.992Z,89.30
2023-02-13T06:40:38.190Z,89.10
2023-02-13T06:43:05.522Z,89.10
2023-02-13T06:45:32.773Z,88.80
2023-02-13T06:47:59.937Z,89.00
2023-02-13T06:50:27.137Z,89.30
2023-02-13T06:52:54.340Z,89.20
2023-02-13T06:55:21.552Z,88.90
2023-02-13T06:57:48.767Z,89.10
2023-02-13T07:00:17.634Z,89.10
2023-02-13T07:02:46.874Z,89.00
2023-02-13T07:05:14.920Z,89.00
2023-02-13T07:07:42.781Z,89.00
2023-02-13T07:10:13.015Z,89.00
2023-02-13T07:12:40.522Z,89.10
2023-02-13T07:15:08.416Z,88.70
2023-02-13T07:17:35.992Z,88.60
2023-02-13T07:20:28.894Z,88.20
2023-02-13T07:23:03.610Z,87.70
2023-02-13T07:25:31.497Z,87.40
2023-02-13T07:28:04.573Z,87.70
2023-02-13T07:30:33.455Z,87.70
2023-02-13T07:33:02.140Z,88.00
2023-02-13T07:35:29.540Z,88.10
2023-02-13T07:37:56.808Z,88.10
2023-02-13T07:40:23.979Z,88.30
2023-02-13T07:42:51.147Z,88.20
2023-02-13T07:45:18.412Z,87.90
2023-02-13T07:47:45.575Z,88.20
2023-02-13T07:50:13.173Z,88.00
2023-02-13T07:52:40.337Z,87.60
2023-02-13T07:55:11.518Z,87.50
2023-02-13T07:57:38.752Z,87.30
2023-02-13T08:00:06.731Z,87.30
2023-02-13T08:02:39.163Z,87.10
2023-02-13T08:05:07.065Z,87.00
2023-02-13T08:07:36.425Z,87.10
2023-02-13T08:10:24.547Z,87.10
2023-02-13T08:12:52.794Z,86.90
2023-02-13T08:15:20.424Z,86.70
2023-02-13T08:17:47.618Z,86.60
2023-02-13T08:20:17.051Z,86.70
2023-02-13T08:22:44.167Z,87.00
2023-02-13T08:25:11.356Z,87.00
2023-02-13T08:27:38.678Z,86.90
2023-02-13T08:30:06.714Z,87.00
2023-02-13T08:32:48.342Z,87.10
2023-02-13T08:35:27.025Z,87.00
2023-02-13T08:37:54.404Z,87.10
2023-02-13T08:40:23.510Z,86.90
2023-02-13T08:42:52.734Z,86.80
2023-02-13T08:45:20.086Z,86.90
2023-02-13T08:47:47.262Z,86.80
2023-02-13T08:50:14.466Z,86.90
2023-02-13T08:52:41.788Z,86.70
2023-02-13T08:55:08.993Z,87.00
2023-02-13T08:57:36.198Z,86.80
2023-02-13T09:00:04.534Z,86.90
2023-02-13T09:02:31.881Z,86.70
2023-02-13T09:04:59.127Z,86.90
2023-02-13T09:07:26.338Z,86.60
2023-02-13T09:09:55.540Z,86.70
2023-02-13T09:12:22.720Z,86.60
2023-02-13T09:14:49.923Z,86.70
2023-02-13T09:17:18.947Z,86.80
2023-02-13T09:19:47.234Z,86.60
2023-02-13T09:22:17.100Z,87.00
2023-02-13T09:24:44.375Z,87.00
2023-02-13T09:27:11.581Z,86.90
2023-02-13T09:29:38.833Z,86.40
2023-02-13T09:32:06.983Z,86.30
2023-02-13T09:34:34.341Z,86.60
2023-02-13T09:37:02.620Z,86.80
2023-02-13T09:39:29.787Z,86.80
2023-02-13T09:41:57.980Z,86.70
2023-02-13T09:44:39.401Z,86.80
2023-02-13T09:47:18.014Z,86.80
2023-02-13T09:49:52.930Z,86.70
2023-02-13T09:52:20.499Z,86.70
2023-02-13T09:54:47.767Z,86.60
2023-02-13T09:57:28.544Z,86.40
2023-02-13T10:00:02.242Z,86.30
2023-02-13T10:02:57.918Z,86.20
2023-02-13T10:05:43.074Z,86.00
2023-02-13T10:08:54.886Z,86.30
2023-02-13T10:11:56.171Z,85.80
2023-02-13T10:14:42.912Z,85.90
2023-02-13T10:17:31.977Z,86.00
2023-02-13T10:20:37.491Z,85.50
2023-02-13T10:23:19.932Z,85.40
2023-02-13T10:25:58.090Z,85.30
2023-02-13T10:29:19.547Z,85.20
2023-02-13T10:31:55.107Z,85.20
2023-02-13T10:34:26.812Z,84.90
2023-02-13T10:36:54.910Z,85.10
2023-02-13T10:39:23.900Z,84.80
2023-02-13T10:41:53.244Z,84.50
2023-02-13T10:44:35.057Z,83.80
2023-02-13T10:47:24.014Z,83.80
2023-02-13T10:50:15.910Z,84.30
2023-02-13T10:52:56.401Z,83.90
2023-02-13T10:55:50.417Z,84.20
2023-02-13T10:58:22.520Z,83.70
2023-02-13T11:01:09.512Z,83.40
2023-02-13T11:03:36.739Z,83.50
2023-02-13T11:06:09.241Z,83.40
2023-02-13T11:08:43.146Z,82.80
2023-02-13T11:11:34.732Z,82.50
2023-02-13T11:14:19.095Z,82.90
2023-02-13T11:16:55.867Z,82.90
2023-02-13T11:19:28.836Z,82.90
2023-02-13T11:22:04.329Z,82.50
2023-02-13T11:24:31.724Z,82.90
2023-02-13T11:27:09.127Z,81.90
2023-02-13T11:29:58.505Z,81.90
2023-02-13T11:32:28.011Z,81.90
2023-02-13T11:35:32.799Z,82.00
2023-02-13T11:38:20.824Z,82.20
2023-02-13T11:40:53.135Z,82.00
2023-02-13T11:43:29.715Z,81.60
2023-02-13T11:46:23.190Z,81.50
2023-02-13T11:49:04.953Z,81.70
2023-02-13T11:51:43.686Z,81.50
2023-02-13T11:54:25.851Z,81.60
2023-02-13T11:57:11.124Z,81.40
2023-02-13T11:59:43.827Z,81.50
2023-02-13T12:02:26.309Z,81.90
2023-02-13T12:05:22.985Z,81.30
2023-02-13T12:07:51.649Z,80.90
2023-02-13T12:10:25.609Z,81.20
2023-02-13T12:13:15.315Z,81.20
2023-02-13T12:15:44.367Z,81.20
2023-02-13T12:18:41.550Z,80.90
2023-02-13T12:21:31.107Z,81.30
2023-02-13T12:24:36.618Z,81.80
2023-02-13T12:27:19.937Z,81.70
2023-02-13T12:30:23.213Z,81.90
2023-02-13T12:33:16.765Z,81.70
2023-02-13T12:35:59.647Z,81.10
2023-02-13T12:39:12.767Z,80.80
2023-02-13T12:41:58.017Z,81.30
2023-02-13T12:44:56.682Z,81.70
2023-02-13T12:47:30.685Z,81.30
2023-02-13T12:50:18.137Z,79.90
2023-02-13T12:52:54.299Z,80.20
2023-02-13T12:55:38.724Z,80.50
2023-02-13T12:58:41.411Z,80.80
2023-02-13T13:01:32.692Z,80.40
2023-02-13T13:04:14.254Z,80.00
2023-02-13T13:06:48.232Z,80.20
2023-02-13T13:09:47.070Z,80.00
2023-02-13T13:12:36.567Z,79.20
2023-02-13T13:15:35.752Z,79.00
2023-02-13T13:18:26.216Z,78.70
2023-02-13T13:21:20.313Z,78.80
2023-02-13T13:24:01.006Z,78.40
2023-02-13T13:26:35.910Z,78.80
2023-02-13T13:29:10.755Z,78.50
2023-02-13T13:31:39.554Z,78.50
2023-02-13T13:34:14.962Z,76.80
2023-02-13T13:36:54.735Z,75.30
2023-02-13T13:39:38.420Z,75.70
2023-02-13T13:42:34.433Z,75.50
2023-02-13T13:45:36.748Z,75.90
2023-02-13T13:48:17.275Z,73.60
2023-02-13T13:50:45.291Z,73.00
2023-02-13T13:53:20.822Z,68.80
2023-02-13T13:55:48.325Z,66.80
2023-02-13T13:58:37.227Z,67.10
2023-02-13T14:01:27.221Z,65.10
2023-02-13T14:04:06.133Z,64.40
2023-02-13T14:06:45.567Z,65.10
2023-02-13T14:09:28.083Z,67.00
2023-02-13T14:11:56.545Z,65.20
2023-02-13T14:14:30.583Z,65.40
2023-02-13T14:16:58.853Z,66.20
2023-02-13T14:19:40.492Z,65.70
2023-02-13T14:22:19.882Z,66.20
2023-02-13T14:25:23.035Z,67.20
2023-02-13T14:28:20.679Z,67.70
2023-02-13T14:30:50.168Z,71.30
2023-02-13T14:33:30.342Z,71.40
2023-02-13T14:36:07.186Z,72.10
2023-02-13T14:38:35.447Z,72.50
2023-02-13T14:41:02.771Z,72.60
2023-02-13T14:43:37.017Z,72.70
2023-02-13T14:46:26.561Z,72.60
2023-02-13T14:48:59.127Z,72.70
2023-02-13T14:51:48.015Z,73.70
2023-02-13T14:54:29.763Z,73.90
2023-02-13T14:57:21.283Z,73.70
2023-02-13T14:59:55.828Z,74.10
2023-02-13T15:02:46.776Z,74.40
2023-02-13T15:05:19.945Z,74.20
2023-02-13T15:08:00.503Z,73.40
2023-02-13T15:10:44.162Z,73.80
2023-02-13T15:13:33.676Z,74.30
2023-02-13T15:16:02.737Z,73.20
2023-02-13T15:18:40.360Z,72.90
2023-02-13T15:21:15.571Z,72.80
2023-02-13T15:23:44.212Z,72.30
2023-02-13T15:26:20.191Z,72.40
2023-02-13T15:28:59.941Z,72.60
2023-02-13T15:31:38.104Z,72.70
2023-02-13T15:34:24.197Z,73.20
2023-02-13T15:36:52.410Z,73.60
2023-02-13T15:39:24.581Z,74.30
2023-02-13T15:41:56.150Z,74.60
2023-02-13T15:44:27.835Z,73.60
2023-02-13T15:47:00.849Z,73.80
2023-02-13T15:49:39.138Z,73.80
2023-02-13T15:52:18.460Z,74.10
2023-02-13T15:54:52.451Z,74.30
2023-02-13T15:57:20.884Z,74.90
2023-02-13T15:59:49.553Z,75.00
2023-02-13T16:02:21.837Z,75.50
2023-02-13T16:04:52.331Z,75.60
2023-02-13T16:07:20.795Z,75.60
2023-02-13T16:09:48.386Z,74.70
2023-02-13T16:12:21.416Z,74.90
2023-02-13T16:15:02.964Z,74.10
2023-02-13T16:17:39.438Z,74.40
2023-02-13T16:20:17.149Z,74.40
2023-02-13T16:22:52.438Z,74.90
2023-02-13T16:25:31.067Z,73.90
2023-02-13T16:28:17.112Z,74.50
2023-02-13T16:30:58.226Z,75.00
2023-02-13T16:33:47.559Z,75.00
2023-02-13T16:36:14.673Z,75.50
2023-02-13T16:38:47.217Z,75.70
2023-02-13T16:41:17.492Z,75.90
2023-02-13T16:43:51.614Z,75.80
2023-02-13T16:46:32.285Z,75.30
2023-02-13T16:49:06.809Z,75.80
2023-02-13T16:51:39.918Z,75.10
2023-02-13T16:54:21.671Z,73.20
2023-02-13T16:56:54.129Z,73.20
2023-02-13T16:59:40.681Z,73.50
2023-02-13T17:02:29.752Z,74.70
2023-02-13T17:05:09.197Z,76.00
2023-02-13T17:07:41.388Z,76.60
2023-02-13T17:10:28.984Z,75.70
2023-02-13T17:13:00.469Z,76.20
2023-02-13T17:15:29.989Z,75.90
2023-02-13T17:17:57.311Z,74.70
2023-02-13T17:20:30.602Z,74.80
2023-02-13T17:23:00.262Z,74.10
2023-02-13T17:25:32.839Z,74.80
2023-02-13T17:28:21.989Z,74.60
2023-02-13T17:30:51.560Z,74.90
2023-02-13T17:33:28.928Z,75.00
2023-02-13T17:35:56.267Z,75.20
2023-02-13T17:38:23.582Z,75.20
2023-02-13T17:40:51.761Z,75.40
2023-02-13T17:43:20.496Z,75.40
2023-02-13T17:45:49.584Z,75.50
2023-02-13T17:48:17.183Z,75.60
2023-02-13T17:50:45.132Z,75.50
2023-02-13T17:53:27.586Z,75.10
2023-02-13T17:55:54.800Z,75.60
2023-02-13T17:58:22.556Z,75.80
2023-02-13T18:00:49.977Z,75.80
2023-02-13T18:03:22.320Z,75.60
2023-02-13T18:05:49.983Z,75.30
2023-02-13T18:08:19.344Z,75.50
2023-02-13T18:10:46.519Z,75.70
2023-02-13T18:13:15.064Z,75.20
2023-02-13T18:15:46.098Z,75.10
2023-02-13T18:18:15.888Z,75.50
2023-02-13T18:20:54.272Z,75.30
2023-02-13T18:23:24.716Z,75.60
2023-02-13T18:25:53.023Z,75.80
2023-02-13T18:28:20.226Z,76.10
2023-02-13T18:30:47.681Z,75.50
2023-02-13T18:33:14.893Z,75.50
2023-02-13T18:35:42.347Z,75.20
2023-02-13T18:38:09.563Z,75.80
2023-02-13T18:40:36.892Z,76.00
2023-02-13T18:43:04.551Z,76.20
2023-02-13T18:45:31.902Z,76.50
2023-02-13T18:47:59.177Z,76.50
2023-02-13T18:50:26.458Z,75.60
2023-02-13T18:52:55.721Z,75.30
2023-02-13T18:55:22.901Z,76.20
2023-02-13T18:57:52.813Z,76.30
2023-02-13T19:00:22.209Z,76.50
2023-02-13T19:02:49.368Z,77.20
2023-02-13T19:05:16.535Z,76.70
2023-02-13T19:07:47.841Z,76.90
2023-02-13T19:10:15.602Z,76.50
2023-02-13T19:12:43.192Z,76.60
2023-02-13T19:15:10.911Z,76.90
2023-02-13T19:17:39.258Z,76.80
2023-02-13T19:20:07.110Z,76.70
2023-02-13T19:22:38.341Z,76.80
2023-02-13T19:25:05.828Z,76.70
2023-02-13T19:27:36.182Z,76.90
2023-02-13T19:30:05.116Z,77.30
2023-02-13T19:32:32.328Z,77.70
2023-02-13T19:34:59.552Z,78.00
2023-02-13T19:37:42.978Z,78.30
2023-02-13T19:40:11.871Z,78.40
2023-02-13T19:42:40.301Z,78.90
2023-02-13T19:45:07.922Z,79.10
2023-02-13T19:47:35.166Z,79.50
2023-02-13T19:50:02.348Z,79.70
2023-02-13T19:52:29.704Z,79.70
2023-02-13T19:54:56.901Z,79.60
2023-02-13T19:57:24.075Z,79.80
2023-02-13T19:59:52.421Z,79.90
2023-02-13T20:02:21.436Z,80.00
2023-02-13T20:04:48.709Z,80.10
2023-02-13T20:07:16.039Z,80.20
2023-02-13T20:09:43.342Z,80.50
2023-02-13T20:12:10.802Z,81.20
2023-02-13T20:14:37.998Z,81.60
2023-02-13T20:17:05.517Z,81.70
2023-02-13T20:19:32.728Z,81.20
2023-02-13T20:22:04.880Z,81.20
2023-02-13T20:24:32.984Z,81.30
2023-02-13T20:27:05.841Z,81.90
2023-02-13T20:29:37.268Z,82.50
2023-02-13T20:32:05.834Z,83.20
2023-02-13T20:34:44.187Z,83.30
2023-02-13T20:37:17.288Z,83.50
2023-02-13T20:39:44.468Z,83.80
2023-02-13T20:42:11.664Z,84.00
2023-02-13T20:44:39.055Z,84.70
2023-02-13T20:47:06.308Z,83.90
2023-02-13T20:49:34.585Z,83.40
2023-02-13T20:52:01.874Z,83.30
2023-02-13T20:54:29.050Z,83.50
2023-02-13T20:56:58.306Z,84.30
2023-02-13T20:59:25.521Z,84.40
2023-02-13T21:01:52.722Z,84.50
2023-02-13T21:04:20.940Z,84.30
2023-02-13T21:06:48.530Z,84.10
2023-02-13T21:09:15.990Z,84.00
2023-02-13T21:11:44.341Z,84.00
2023-02-13T21:14:13.226Z,84.70
2023-02-13T21:16:41.723Z,85.20
2023-02-13T21:19:16.258Z,85.60
2023-02-13T21:21:44.403Z,85.00
2023-02-13T21:24:22.336Z,84.80
2023-02-13T21:26:52.252Z,84.30
2023-02-13T21:29:19.809Z,83.70
2023-02-13T21:31:47.864Z,83.60
2023-02-13T21:34:16.911Z,82.90
2023-02-13T21:36:44.956Z,83.90
2023-02-13T21:39:13.035Z,84.10
2023-02-13T21:41:44.277Z,83.90
2023-02-13T21:44:16.215Z,84.00
2023-02-13T21:46:44.868Z,83.00
2023-02-13T21:49:14.549Z,83.60
2023-02-13T21:51:42.485Z,83.70
2023-02-13T21:54:10.415Z,83.70
2023-02-13T21:56:39.954Z,83.50
2023-02-13T21:59:07.192Z,83.70
2023-02-13T22:01:45.630Z,83.90
2023-02-13T22:04:14.167Z,83.70
2023-02-13T22:06:41.817Z,83.70
2023-02-13T22:09:12.143Z,83.50
2023-02-13T22:11:40.432Z,84.00
2023-02-13T22:14:10.559Z,83.90
2023-02-13T22:16:38.854Z,84.30
2023-02-13T22:19:07.121Z,84.50
2023-02-13T22:21:35.579Z,84.60
2023-02-13T22:24:03.096Z,84.10
2023-02-13T22:26:36.117Z,84.00
2023-02-13T22:29:09.501Z,84.80
2023-02-13T22:32:01.795Z,84.20
2023-02-13T22:34:29.197Z,84.30
2023-02-13T22:36:56.427Z,84.70
2023-02-13T22:39:23.646Z,85.30
2023-02-13T22:41:50.831Z,84.90
2023-02-13T22:44:18.004Z,85.00
2023-02-13T22:46:45.326Z,84.70
2023-02-13T22:49:12.560Z,85.00
2023-02-13T22:51:39.793Z,84.80
2023-02-13T22:54:07.341Z,85.20
2023-02-13T22:56:34.907Z,85.10
2023-02-13T22:59:02.358Z,85.70
2023-02-13T23:01:29.979Z,85.60
2023-02-13T23:03:57.830Z,86.00
2023-02-13T23:06:25.812Z,85.80
2023-02-13T23:08:53.707Z,85.70
2023-02-13T23:11:42.724Z,85.70
2023-02-13T23:14:10.572Z,85.30
2023-02-13T23:16:58.193Z,86.00
2023-02-13T23:19:27.284Z,86.10
2023-02-13T23:21:54.582Z,86.30
2023-02-13T23:24:21.867Z,86.10
2023-02-13T23:26:49.055Z,86.00
2023-02-13T23:29:16.495Z,85.30
2023-02-13T23:31:43.995Z,85.00
2023-02-13T23:34:11.528Z,85.10
2023-02-13T23:36:38.766Z,84.80
2023-02-13T23:39:05.993Z,84.90
2023-02-13T23:41:33.214Z,84.80
2023-02-13T23:44:00.440Z,85.00
2023-02-13T23:46:27.933Z,85.40
2023-02-13T23:48:55.164Z,85.80
2023-02-13T23:51:23.113Z,85.30
2023-02-13T23:53:53.100Z,84.90
2023-02-13T23:56:21.196Z,85.00
2023-02-13T23:58:48.427Z,85.30
